sensor_id;sensor_type;location;lat;lon;timestamp;temperature;humidity
27200;DHT22;14714;48.106;11.546;2023-04-06T00:00:39;-0.90;99.90
27200;DHT22;14714;48.106;11.546;2023-04-06T00:03:06;-1.00;99.90
27200;DHT22;14714;48.106;11.546;2023-04-06T00:05:33;-1.00;99.90
27200;DHT22;14714;48.106;11.546;2023-04-06T00:08:00;-1.00;99.90
27200;DHT22;14714;48.106;11.546;2023-04-06T00:10:27;-1.00;99.90
27200;DHT22;14714;48.106;11.546;2023-04-06T00:12:54;-1.00;99.90
27200;DHT22;14714;48.106;11.546;2023-04-06T00:15:21;-1.00;99.90
27200;DHT22;14714;48.106;11.546;2023-04-06T00:17:48;-1.10;99.90
27200;DHT22;14714;48.106;11.546;2023-04-06T00:20:15;-1.10;99.90
27200;DHT22;14714;48.106;11.546;2023-04-06T00:22:43;-1.00;99.90
27200;DHT22;14714;48.106;11.546;2023-04-06T00:25:10;-1.10;99.90
27200;DHT22;14714;48.106;11.546;2023-04-06T00:27:38;-1.10;99.90
27200;DHT22;14714;48.106;11.546;2023-04-06T00:30:05;-1.10;99.90
27200;DHT22;14714;48.106;11.546;2023-04-06T00:32:32;-1.10;99.90
27200;DHT22;14714;48.106;11.546;2023-04-06T00:34:59;-1.10;99.90
27200;DHT22;14714;48.106;11.546;2023-04-06T00:37:26;-1.10;99.90
27200;DHT22;14714;48.106;11.546;2023-04-06T00:39:53;-1.20;99.90
27200;DHT22;14714;48.106;11.546;2023-04-06T00:42:21;-1.10;99.90
27200;DHT22;14714;48.106;11.546;2023-04-06T00:44:57;-1.20;99.90
27200;DHT22;14714;48.106;11.546;2023-04-06T00:47:25;-1.20;99.90
27200;DHT22;14714;48.106;11.546;2023-04-06T00:49:53;-1.20;99.90
27200;DHT22;14714;48.106;11.546;2023-04-06T00:52:21;-1.20;99.90
27200;DHT22;14714;48.106;11.546;2023-04-06T00:54:49;-1.20;99.90
27200;DHT22;14714;48.106;11.546;2023-04-06T00:57:16;-1.30;99.90
27200;DHT22;14714;48.106;11.546;2023-04-06T00:59:43;-1.20;99.90
27200;DHT22;14714;48.106;11.546;2023-04-06T01:02:11;-1.30;99.90
27200;DHT22;14714;48.106;11.546;2023-04-06T01:04:37;-1.30;99.90
27200;DHT22;14714;48.106;11.546;2023-04-06T01:07:04;-1.30;99.90
27200;DHT22;14714;48.106;11.546;2023-04-06T01:09:31;-1.30;99.90
27200;DHT22;14714;48.106;11.546;2023-04-06T01:11:58;-1.40;99.90
27200;DHT22;14714;48.106;11.546;2023-04-06T01:14:25;-1.40;99.90
27200;DHT22;14714;48.106;11.546;2023-04-06T01:16:52;-1.40;99.90
27200;DHT22;14714;48.106;11.546;2023-04-06T01:19:19;-1.40;99.90
27200;DHT22;14714;48.106;11.546;2023-04-06T01:21:47;-1.40;99.90
27200;DHT22;14714;48.106;11.546;2023-04-06T01:24:16;-1.50;99.90
27200;DHT22;14714;48.106;11.546;2023-04-06T01:26:43;-1.50;99.90
27200;DHT22;14714;48.106;11.546;2023-04-06T01:29:09;-1.50;99.90
27200;DHT22;14714;48.106;11.546;2023-04-06T01:31:36;-1.60;99.90
27200;DHT22;14714;48.106;11.546;2023-04-06T01:34:03;-1.60;99.90
27200;DHT22;14714;48.106;11.546;2023-04-06T01:36:30;-1.60;99.90
27200;DHT22;14714;48.106;11.546;2023-04-06T01:38:57;-1.60;99.90
27200;DHT22;14714;48.106;11.546;2023-04-06T01:41:24;-1.60;99.90
27200;DHT22;14714;48.106;11.546;2023-04-06T01:43:51;-1.60;99.90
27200;DHT22;14714;48.106;11.546;2023-04-06T01:46:21;-1.60;99.90
27200;DHT22;14714;48.106;11.546;2023-04-06T01:48:48;-1.60;99.90
27200;DHT22;14714;48.106;11.546;2023-04-06T01:51:15;-1.70;99.90
27200;DHT22;14714;48.106;11.546;2023-04-06T01:53:42;-1.70;99.90
27200;DHT22;14714;48.106;11.546;2023-04-06T01:56:09;-1.70;99.90
27200;DHT22;14714;48.106;11.546;2023-04-06T01:58:36;-1.80;99.90
27200;DHT22;14714;48.106;11.546;2023-04-06T02:01:03;-1.80;99.90
27200;DHT22;14714;48.106;11.546;2023-04-06T02:03:30;-1.80;99.90
27200;DHT22;14714;48.106;11.546;2023-04-06T02:05:57;-1.80;99.90
27200;DHT22;14714;48.106;11.546;2023-04-06T02:08:24;-1.80;99.90
27200;DHT22;14714;48.106;11.546;2023-04-06T02:10:51;-1.80;99.90
27200;DHT22;14714;48.106;11.546;2023-04-06T02:13:18;-1.80;99.90
27200;DHT22;14714;48.106;11.546;2023-04-06T02:15:45;-1.90;99.90
27200;DHT22;14714;48.106;11.546;2023-04-06T02:18:12;-1.90;99.90
27200;DHT22;14714;48.106;11.546;2023-04-06T02:20:39;-1.90;99.90
27200;DHT22;14714;48.106;11.546;2023-04-06T02:23:07;-1.90;99.90
27200;DHT22;14714;48.106;11.546;2023-04-06T02:25:34;-1.90;99.90
27200;DHT22;14714;48.106;11.546;2023-04-06T02:28:01;-1.90;99.90
27200;DHT22;14714;48.106;11.546;2023-04-06T02:30:28;-1.90;99.90
27200;DHT22;14714;48.106;11.546;2023-04-06T02:32:55;-1.90;99.90
27200;DHT22;14714;48.106;11.546;2023-04-06T02:35:24;-1.90;99.90
27200;DHT22;14714;48.106;11.546;2023-04-06T02:37:51;-1.80;99.90
27200;DHT22;14714;48.106;11.546;2023-04-06T02:40:17;-1.90;99.90
27200;DHT22;14714;48.106;11.546;2023-04-06T02:42:44;-1.90;99.90
27200;DHT22;14714;48.106;11.546;2023-04-06T02:45:11;-1.90;99.90
27200;DHT22;14714;48.106;11.546;2023-04-06T02:47:38;-1.90;99.90
27200;DHT22;14714;48.106;11.546;2023-04-06T02:50:05;-1.90;99.90
27200;DHT22;14714;48.106;11.546;2023-04-06T02:52:32;-1.90;99.90
27200;DHT22;14714;48.106;11.546;2023-04-06T02:54:59;-1.90;99.90
27200;DHT22;14714;48.106;11.546;2023-04-06T02:57:25;-1.90;99.90
27200;DHT22;14714;48.106;11.546;2023-04-06T02:59:52;-1.90;99.90
27200;DHT22;14714;48.106;11.546;2023-04-06T03:02:19;-1.90;99.90
27200;DHT22;14714;48.106;11.546;2023-04-06T03:04:46;-1.90;99.90
27200;DHT22;14714;48.106;11.546;2023-04-06T03:07:13;-1.90;99.90
27200;DHT22;14714;48.106;11.546;2023-04-06T03:09:40;-1.90;99.90
27200;DHT22;14714;48.106;11.546;2023-04-06T03:12:07;-1.90;99.90
27200;DHT22;14714;48.106;11.546;2023-04-06T03:14:35;-1.90;99.90
27200;DHT22;14714;48.106;11.546;2023-04-06T03:17:02;-1.90;99.90
27200;DHT22;14714;48.106;11.546;2023-04-06T03:19:29;-1.90;99.90
27200;DHT22;14714;48.106;11.546;2023-04-06T03:21:56;-1.90;99.90
27200;DHT22;14714;48.106;11.546;2023-04-06T03:24:22;-1.90;99.90
27200;DHT22;14714;48.106;11.546;2023-04-06T03:26:49;-1.90;99.90
27200;DHT22;14714;48.106;11.546;2023-04-06T03:29:16;-1.90;99.90
27200;DHT22;14714;48.106;11.546;2023-04-06T03:31:43;-1.90;99.90
27200;DHT22;14714;48.106;11.546;2023-04-06T03:34:10;-1.90;99.90
27200;DHT22;14714;48.106;11.546;2023-04-06T03:36:37;-1.90;99.90
27200;DHT22;14714;48.106;11.546;2023-04-06T03:39:04;-1.90;99.90
27200;DHT22;14714;48.106;11.546;2023-04-06T03:41:32;-1.90;99.90
27200;DHT22;14714;48.106;11.546;2023-04-06T03:43:58;-1.90;99.90
27200;DHT22;14714;48.106;11.546;2023-04-06T03:46:25;-1.90;99.90
27200;DHT22;14714;48.106;11.546;2023-04-06T03:48:52;-1.90;99.90
27200;DHT22;14714;48.106;11.546;2023-04-06T03:51:19;-1.80;99.90
27200;DHT22;14714;48.106;11.546;2023-04-06T03:53:46;-1.80;99.90
27200;DHT22;14714;48.106;11.546;2023-04-06T03:56:13;-1.80;99.90
27200;DHT22;14714;48.106;11.546;2023-04-06T03:58:39;-1.80;99.90
27200;DHT22;14714;48.106;11.546;2023-04-06T04:01:06;-1.80;99.90
27200;DHT22;14714;48.106;11.546;2023-04-06T04:03:33;-1.80;99.90
27200;DHT22;14714;48.106;11.546;2023-04-06T04:06:00;-1.80;99.90
27200;DHT22;14714;48.106;11.546;2023-04-06T04:08:27;-1.80;99.90
27200;DHT22;14714;48.106;11.546;2023-04-06T04:10:54;-1.80;99.90
27200;DHT22;14714;48.106;11.546;2023-04-06T04:13:21;-1.80;99.90
27200;DHT22;14714;48.106;11.546;2023-04-06T04:15:47;-1.80;99.90
27200;DHT22;14714;48.106;11.546;2023-04-06T04:18:14;-1.80;99.90
27200;DHT22;14714;48.106;11.546;2023-04-06T04:20:41;-1.80;99.90
27200;DHT22;14714;48.106;11.546;2023-04-06T04:23:08;-1.80;99.90
27200;DHT22;14714;48.106;11.546;2023-04-06T04:25:35;-1.80;99.90
27200;DHT22;14714;48.106;11.546;2023-04-06T04:28:02;-1.80;99.90
27200;DHT22;14714;48.106;11.546;2023-04-06T04:30:28;-1.80;99.90
27200;DHT22;14714;48.106;11.546;2023-04-06T04:32:55;-1.80;99.90
27200;DHT22;14714;48.106;11.546;2023-04-06T04:35:22;-1.80;99.90
27200;DHT22;14714;48.106;11.546;2023-04-06T04:37:49;-1.80;99.90
27200;DHT22;14714;48.106;11.546;2023-04-06T04:40:16;-1.80;99.90
27200;DHT22;14714;48.106;11.546;2023-04-06T04:42:43;-1.90;99.90
27200;DHT22;14714;48.106;11.546;2023-04-06T04:45:11;-1.90;99.90
27200;DHT22;14714;48.106;11.546;2023-04-06T04:47:38;-1.80;99.90
27200;DHT22;14714;48.106;11.546;2023-04-06T04:50:05;-1.80;99.90
27200;DHT22;14714;48.106;11.546;2023-04-06T04:52:32;-1.80;99.90
27200;DHT22;14714;48.106;11.546;2023-04-06T04:54:59;-1.80;99.90
27200;DHT22;14714;48.106;11.546;2023-04-06T04:57:25;-1.80;99.90
27200;DHT22;14714;48.106;11.546;2023-04-06T04:59:52;-1.70;99.90
27200;DHT22;14714;48.106;11.546;2023-04-06T05:02:22;-1.70;99.90
27200;DHT22;14714;48.106;11.546;2023-04-06T05:04:49;-1.60;99.90
27200;DHT22;14714;48.106;11.546;2023-04-06T05:07:15;-1.60;99.90
27200;DHT22;14714;48.106;11.546;2023-04-06T05:09:45;-1.40;99.90
27200;DHT22;14714;48.106;11.546;2023-04-06T05:12:12;-1.40;99.90
27200;DHT22;14714;48.106;11.546;2023-04-06T05:14:39;-1.30;99.90
27200;DHT22;14714;48.106;11.546;2023-04-06T05:17:06;-1.10;99.90
27200;DHT22;14714;48.106;11.546;2023-04-06T05:19:33;-1.00;99.90
27200;DHT22;14714;48.106;11.546;2023-04-06T05:21:59;-0.80;99.90
27200;DHT22;14714;48.106;11.546;2023-04-06T05:24:26;-0.70;99.90
27200;DHT22;14714;48.106;11.546;2023-04-06T05:26:53;-0.50;99.90
27200;DHT22;14714;48.106;11.546;2023-04-06T05:29:20;-0.20;99.90
27200;DHT22;14714;48.106;11.546;2023-04-06T05:31:47;0.00;99.90
27200;DHT22;14714;48.106;11.546;2023-04-06T05:34:15;0.30;99.90
27200;DHT22;14714;48.106;11.546;2023-04-06T05:36:41;0.60;99.90
27200;DHT22;14714;48.106;11.546;2023-04-06T05:39:08;1.10;99.90
27200;DHT22;14714;48.106;11.546;2023-04-06T05:41:35;1.70;99.90
27200;DHT22;14714;48.106;11.546;2023-04-06T05:44:02;2.40;99.90
27200;DHT22;14714;48.106;11.546;2023-04-06T05:46:29;2.80;99.90
27200;DHT22;14714;48.106;11.546;2023-04-06T05:48:56;3.40;99.90
27200;DHT22;14714;48.106;11.546;2023-04-06T05:51:23;4.70;99.90
27200;DHT22;14714;48.106;11.546;2023-04-06T05:53:50;6.30;99.90
27200;DHT22;14714;48.106;11.546;2023-04-06T05:56:16;7.80;99.90
27200;DHT22;14714;48.106;11.546;2023-04-06T05:58:43;9.20;97.60
27200;DHT22;14714;48.106;11.546;2023-04-06T06:01:10;10.30;90.30
27200;DHT22;14714;48.106;11.546;2023-04-06T06:03:37;11.00;81.80
27200;DHT22;14714;48.106;11.546;2023-04-06T06:06:04;11.80;74.50
27200;DHT22;14714;48.106;11.546;2023-04-06T06:08:31;12.60;67.40
27200;DHT22;14714;48.106;11.546;2023-04-06T06:10:58;13.40;62.40
27200;DHT22;14714;48.106;11.546;2023-04-06T06:13:25;14.20;58.10
27200;DHT22;14714;48.106;11.546;2023-04-06T06:18:20;15.10;52.80
27200;DHT22;14714;48.106;11.546;2023-04-06T06:20:47;15.40;50.40
27200;DHT22;14714;48.106;11.546;2023-04-06T06:23:14;15.50;49.70
27200;DHT22;14714;48.106;11.546;2023-04-06T06:25:40;15.50;49.00
27200;DHT22;14714;48.106;11.546;2023-04-06T06:28:07;16.00;47.90
27200;DHT22;14714;48.106;11.546;2023-04-06T06:30:34;16.40;48.00
27200;DHT22;14714;48.106;11.546;2023-04-06T06:33:01;17.20;46.60
27200;DHT22;14714;48.106;11.546;2023-04-06T06:35:28;18.00;44.40
27200;DHT22;14714;48.106;11.546;2023-04-06T06:37:55;18.80;42.50
27200;DHT22;14714;48.106;11.546;2023-04-06T06:40:22;19.60;42.60
27200;DHT22;14714;48.106;11.546;2023-04-06T06:42:50;20.50;39.30
27200;DHT22;14714;48.106;11.546;2023-04-06T06:45:18;21.40;37.40
27200;DHT22;14714;48.106;11.546;2023-04-06T06:47:45;22.20;35.70
27200;DHT22;14714;48.106;11.546;2023-04-06T06:50:12;22.70;33.20
27200;DHT22;14714;48.106;11.546;2023-04-06T06:52:39;21.00;32.50
27200;DHT22;14714;48.106;11.546;2023-04-06T06:55:07;19.10;37.40
27200;DHT22;14714;48.106;11.546;2023-04-06T06:57:34;19.50;39.00
27200;DHT22;14714;48.106;11.546;2023-04-06T07:00:00;20.70;37.10
27200;DHT22;14714;48.106;11.546;2023-04-06T07:02:27;22.00;34.40
27200;DHT22;14714;48.106;11.546;2023-04-06T07:04:54;23.40;32.40
27200;DHT22;14714;48.106;11.546;2023-04-06T07:07:21;24.50;30.00
27200;DHT22;14714;48.106;11.546;2023-04-06T07:09:48;25.30;28.50
27200;DHT22;14714;48.106;11.546;2023-04-06T07:12:15;24.50;28.20
27200;DHT22;14714;48.106;11.546;2023-04-06T07:14:43;22.60;30.00
27200;DHT22;14714;48.106;11.546;2023-04-06T07:17:10;20.90;32.20
27200;DHT22;14714;48.106;11.546;2023-04-06T07:19:37;19.50;35.00
27200;DHT22;14714;48.106;11.546;2023-04-06T07:22:03;18.90;38.00
27200;DHT22;14714;48.106;11.546;2023-04-06T07:24:31;20.00;36.70
27200;DHT22;14714;48.106;11.546;2023-04-06T07:26:59;21.00;34.00
27200;DHT22;14714;48.106;11.546;2023-04-06T07:29:27;21.20;31.70
27200;DHT22;14714;48.106;11.546;2023-04-06T07:31:54;20.60;31.40
27200;DHT22;14714;48.106;11.546;2023-04-06T07:34:22;20.00;33.20
27200;DHT22;14714;48.106;11.546;2023-04-06T07:36:48;20.70;34.40
27200;DHT22;14714;48.106;11.546;2023-04-06T07:39:16;22.10;31.60
27200;DHT22;14714;48.106;11.546;2023-04-06T07:41:43;22.70;29.30
27200;DHT22;14714;48.106;11.546;2023-04-06T07:44:12;22.80;29.60
27200;DHT22;14714;48.106;11.546;2023-04-06T07:46:39;23.30;28.70
27200;DHT22;14714;48.106;11.546;2023-04-06T07:49:06;23.10;28.30
27200;DHT22;14714;48.106;11.546;2023-04-06T07:51:32;22.60;28.60
27200;DHT22;14714;48.106;11.546;2023-04-06T07:54:01;22.10;29.00
27200;DHT22;14714;48.106;11.546;2023-04-06T07:56:28;21.60;29.30
27200;DHT22;14714;48.106;11.546;2023-04-06T07:58:55;20.70;30.70
27200;DHT22;14714;48.106;11.546;2023-04-06T08:01:24;20.80;30.80
27200;DHT22;14714;48.106;11.546;2023-04-06T08:03:51;21.40;30.90
27200;DHT22;14714;48.106;11.546;2023-04-06T08:06:18;22.80;28.90
27200;DHT22;14714;48.106;11.546;2023-04-06T08:08:44;23.90;26.50
27200;DHT22;14714;48.106;11.546;2023-04-06T08:11:11;24.70;25.60
27200;DHT22;14714;48.106;11.546;2023-04-06T08:13:38;24.60;25.60
27200;DHT22;14714;48.106;11.546;2023-04-06T08:16:05;23.90;25.80
27200;DHT22;14714;48.106;11.546;2023-04-06T08:18:32;23.10;25.90
27200;DHT22;14714;48.106;11.546;2023-04-06T08:20:59;22.60;27.40
27200;DHT22;14714;48.106;11.546;2023-04-06T08:23:25;23.50;27.40
27200;DHT22;14714;48.106;11.546;2023-04-06T08:25:52;24.80;26.10
27200;DHT22;14714;48.106;11.546;2023-04-06T08:28:20;26.40;25.20
27200;DHT22;14714;48.106;11.546;2023-04-06T08:30:47;27.50;23.40
27200;DHT22;14714;48.106;11.546;2023-04-06T08:33:14;28.00;23.10
27200;DHT22;14714;48.106;11.546;2023-04-06T08:35:42;28.40;23.40
27200;DHT22;14714;48.106;11.546;2023-04-06T08:38:08;28.30;21.70
27200;DHT22;14714;48.106;11.546;2023-04-06T08:40:37;27.80;21.90
27200;DHT22;14714;48.106;11.546;2023-04-06T08:43:12;27.80;22.50
27200;DHT22;14714;48.106;11.546;2023-04-06T08:45:40;27.90;22.30
27200;DHT22;14714;48.106;11.546;2023-04-06T08:48:08;27.80;21.40
27200;DHT22;14714;48.106;11.546;2023-04-06T08:50:35;27.50;23.00
27200;DHT22;14714;48.106;11.546;2023-04-06T08:53:02;28.10;22.20
27200;DHT22;14714;48.106;11.546;2023-04-06T08:55:29;28.70;22.10
27200;DHT22;14714;48.106;11.546;2023-04-06T08:57:56;29.20;21.80
27200;DHT22;14714;48.106;11.546;2023-04-06T09:00:25;29.70;20.50
27200;DHT22;14714;48.106;11.546;2023-04-06T09:02:53;29.60;20.80
27200;DHT22;14714;48.106;11.546;2023-04-06T09:05:24;29.30;21.10
27200;DHT22;14714;48.106;11.546;2023-04-06T09:07:52;29.20;21.20
27200;DHT22;14714;48.106;11.546;2023-04-06T09:10:18;28.90;20.60
27200;DHT22;14714;48.106;11.546;2023-04-06T09:12:47;28.80;20.60
27200;DHT22;14714;48.106;11.546;2023-04-06T09:15:21;28.40;21.30
27200;DHT22;14714;48.106;11.546;2023-04-06T09:17:50;28.50;20.80
27200;DHT22;14714;48.106;11.546;2023-04-06T09:20:23;28.50;20.60
27200;DHT22;14714;48.106;11.546;2023-04-06T09:22:52;28.40;21.10
27200;DHT22;14714;48.106;11.546;2023-04-06T09:25:20;28.70;21.10
27200;DHT22;14714;48.106;11.546;2023-04-06T09:27:48;28.80;20.60
27200;DHT22;14714;48.106;11.546;2023-04-06T09:30:16;28.40;21.80
27200;DHT22;14714;48.106;11.546;2023-04-06T09:32:51;28.50;20.80
27200;DHT22;14714;48.106;11.546;2023-04-06T09:35:19;28.70;21.00
27200;DHT22;14714;48.106;11.546;2023-04-06T09:37:48;28.50;20.10
27200;DHT22;14714;48.106;11.546;2023-04-06T09:40:16;27.50;21.30
27200;DHT22;14714;48.106;11.546;2023-04-06T09:42:46;27.50;22.10
27200;DHT22;14714;48.106;11.546;2023-04-06T09:45:14;27.80;22.20
27200;DHT22;14714;48.106;11.546;2023-04-06T09:47:45;27.70;22.50
27200;DHT22;14714;48.106;11.546;2023-04-06T09:50:13;27.60;22.20
27200;DHT22;14714;48.106;11.546;2023-04-06T09:55:09;25.70;22.20
27200;DHT22;14714;48.106;11.546;2023-04-06T09:57:57;24.00;23.70
27200;DHT22;14714;48.106;11.546;2023-04-06T10:00:27;22.90;25.90
27200;DHT22;14714;48.106;11.546;2023-04-06T10:02:59;23.20;26.60
27200;DHT22;14714;48.106;11.546;2023-04-06T10:08:09;23.60;25.10
27200;DHT22;14714;48.106;11.546;2023-04-06T10:10:37;23.70;25.30
27200;DHT22;14714;48.106;11.546;2023-04-06T10:13:04;24.00;25.20
27200;DHT22;14714;48.106;11.546;2023-04-06T10:15:31;24.10;23.80
27200;DHT22;14714;48.106;11.546;2023-04-06T10:17:59;23.30;24.30
27200;DHT22;14714;48.106;11.546;2023-04-06T10:20:28;22.20;25.10
27200;DHT22;14714;48.106;11.546;2023-04-06T10:23:02;21.80;26.70
27200;DHT22;14714;48.106;11.546;2023-04-06T10:25:33;22.00;26.90
27200;DHT22;14714;48.106;11.546;2023-04-06T10:28:11;22.30;26.40
27200;DHT22;14714;48.106;11.546;2023-04-06T10:30:42;21.70;26.20
27200;DHT22;14714;48.106;11.546;2023-04-06T10:33:19;20.70;27.80
27200;DHT22;14714;48.106;11.546;2023-04-06T10:35:46;20.60;28.50
27200;DHT22;14714;48.106;11.546;2023-04-06T10:38:13;21.10;28.20
27200;DHT22;14714;48.106;11.546;2023-04-06T10:40:42;21.20;27.70
27200;DHT22;14714;48.106;11.546;2023-04-06T10:43:11;20.60;28.00
27200;DHT22;14714;48.106;11.546;2023-04-06T10:45:40;20.30;28.60
27200;DHT22;14714;48.106;11.546;2023-04-06T10:48:17;20.50;29.10
27200;DHT22;14714;48.106;11.546;2023-04-06T10:50:48;20.40;28.70
27200;DHT22;14714;48.106;11.546;2023-04-06T10:53:26;20.20;29.10
27200;DHT22;14714;48.106;11.546;2023-04-06T10:55:56;19.70;28.30
27200;DHT22;14714;48.106;11.546;2023-04-06T10:58:27;18.90;28.70
27200;DHT22;14714;48.106;11.546;2023-04-06T11:00:54;17.90;30.60
27200;DHT22;14714;48.106;11.546;2023-04-06T11:03:25;17.20;32.90
27200;DHT22;14714;48.106;11.546;2023-04-06T11:05:53;16.90;32.90
27200;DHT22;14714;48.106;11.546;2023-04-06T11:08:26;16.70;33.50
27200;DHT22;14714;48.106;11.546;2023-04-06T11:13:54;15.90;33.90
27200;DHT22;14714;48.106;11.546;2023-04-06T11:16:26;15.20;35.30
27200;DHT22;14714;48.106;11.546;2023-04-06T11:21:31;14.70;35.70
27200;DHT22;14714;48.106;11.546;2023-04-06T11:29:26;14.90;37.90
27200;DHT22;14714;48.106;11.546;2023-04-06T11:31:58;15.10;37.30
27200;DHT22;14714;48.106;11.546;2023-04-06T11:34:26;15.10;36.90
27200;DHT22;14714;48.106;11.546;2023-04-06T11:36:58;14.90;37.00
27200;DHT22;14714;48.106;11.546;2023-04-06T11:39:27;14.60;36.60
27200;DHT22;14714;48.106;11.546;2023-04-06T11:41:59;14.60;39.40
27200;DHT22;14714;48.106;11.546;2023-04-06T11:44:36;14.80;38.80
27200;DHT22;14714;48.106;11.546;2023-04-06T11:47:05;15.00;38.10
27200;DHT22;14714;48.106;11.546;2023-04-06T11:49:33;15.00;36.90
27200;DHT22;14714;48.106;11.546;2023-04-06T11:52:01;15.00;38.40
27200;DHT22;14714;48.106;11.546;2023-04-06T11:56:57;14.80;41.50
27200;DHT22;14714;48.106;11.546;2023-04-06T11:59:24;14.90;37.40
27200;DHT22;14714;48.106;11.546;2023-04-06T12:01:51;14.70;37.90
27200;DHT22;14714;48.106;11.546;2023-04-06T12:04:20;14.60;38.60
27200;DHT22;14714;48.106;11.546;2023-04-06T12:06:48;14.70;38.80
27200;DHT22;14714;48.106;11.546;2023-04-06T12:09:16;14.90;38.20
27200;DHT22;14714;48.106;11.546;2023-04-06T12:11:44;15.00;37.70
27200;DHT22;14714;48.106;11.546;2023-04-06T12:14:11;15.10;38.90
27200;DHT22;14714;48.106;11.546;2023-04-06T12:17:11;15.10;38.70
27200;DHT22;14714;48.106;11.546;2023-04-06T12:19:40;15.10;38.60
27200;DHT22;14714;48.106;11.546;2023-04-06T12:22:07;15.00;37.40
27200;DHT22;14714;48.106;11.546;2023-04-06T12:24:34;14.90;38.00
27200;DHT22;14714;48.106;11.546;2023-04-06T12:27:02;14.80;38.60
27200;DHT22;14714;48.106;11.546;2023-04-06T12:29:46;14.90;40.80
27200;DHT22;14714;48.106;11.546;2023-04-06T12:32:46;15.00;37.50
27200;DHT22;14714;48.106;11.546;2023-04-06T12:35:19;14.90;37.40
27200;DHT22;14714;48.106;11.546;2023-04-06T12:37:48;14.60;37.30
27200;DHT22;14714;48.106;11.546;2023-04-06T12:40:15;14.40;39.80
27200;DHT22;14714;48.106;11.546;2023-04-06T12:42:42;14.60;38.40
27200;DHT22;14714;48.106;11.546;2023-04-06T12:45:13;14.70;36.60
27200;DHT22;14714;48.106;11.546;2023-04-06T12:47:49;14.50;36.70
27200;DHT22;14714;48.106;11.546;2023-04-06T12:50:23;14.10;37.70
27200;DHT22;14714;48.106;11.546;2023-04-06T12:52:51;13.80;37.80
27200;DHT22;14714;48.106;11.546;2023-04-06T12:55:30;14.00;39.50
27200;DHT22;14714;48.106;11.546;2023-04-06T12:58:17;14.20;39.90
27200;DHT22;14714;48.106;11.546;2023-04-06T13:00:45;14.50;38.80
27200;DHT22;14714;48.106;11.546;2023-04-06T13:06:36;14.90;37.00
27200;DHT22;14714;48.106;11.546;2023-04-06T13:09:04;14.80;36.80
27200;DHT22;14714;48.106;11.546;2023-04-06T13:11:32;14.80;36.80
27200;DHT22;14714;48.106;11.546;2023-04-06T13:51:13;15.40;36.90
27200;DHT22;14714;48.106;11.546;2023-04-06T16:44:23;10.40;45.40
27200;DHT22;14714;48.106;11.546;2023-04-06T16:46:50;10.30;45.20
27200;DHT22;14714;48.106;11.546;2023-04-06T16:49:18;10.20;44.90
27200;DHT22;14714;48.106;11.546;2023-04-06T16:51:46;10.20;44.80
27200;DHT22;14714;48.106;11.546;2023-04-06T16:54:15;10.20;44.90
27200;DHT22;14714;48.106;11.546;2023-04-06T16:56:42;10.10;45.10
27200;DHT22;14714;48.106;11.546;2023-04-06T16:59:09;10.10;45.00
27200;DHT22;14714;48.106;11.546;2023-04-06T17:01:35;10.00;44.50
27200;DHT22;14714;48.106;11.546;2023-04-06T17:04:02;9.90;44.40
27200;DHT22;14714;48.106;11.546;2023-04-06T17:06:29;9.90;45.30
27200;DHT22;14714;48.106;11.546;2023-04-06T17:08:56;9.70;44.60
27200;DHT22;14714;48.106;11.546;2023-04-06T17:11:25;9.60;44.80
27200;DHT22;14714;48.106;11.546;2023-04-06T17:14:06;9.60;46.00
27200;DHT22;14714;48.106;11.546;2023-04-06T17:16:33;9.50;46.00
27200;DHT22;14714;48.106;11.546;2023-04-06T17:19:00;9.40;45.80
27200;DHT22;14714;48.106;11.546;2023-04-06T17:21:27;9.30;46.30
27200;DHT22;14714;48.106;11.546;2023-04-06T17:23:54;9.20;46.70
27200;DHT22;14714;48.106;11.546;2023-04-06T17:26:21;9.10;47.10
27200;DHT22;14714;48.106;11.546;2023-04-06T17:28:48;9.00;47.40
27200;DHT22;14714;48.106;11.546;2023-04-06T17:31:14;8.90;48.00
27200;DHT22;14714;48.106;11.546;2023-04-06T17:33:41;8.80;48.40
27200;DHT22;14714;48.106;11.546;2023-04-06T17:36:08;8.80;48.50
27200;DHT22;14714;48.106;11.546;2023-04-06T17:38:37;8.70;48.90
27200;DHT22;14714;48.106;11.546;2023-04-06T17:41:12;8.60;49.30
27200;DHT22;14714;48.106;11.546;2023-04-06T17:43:39;8.50;50.50
27200;DHT22;14714;48.106;11.546;2023-04-06T17:46:06;8.40;50.90
27200;DHT22;14714;48.106;11.546;2023-04-06T17:48:33;8.30;51.00
27200;DHT22;14714;48.106;11.546;2023-04-06T17:51:00;8.20;52.00
27200;DHT22;14714;48.106;11.546;2023-04-06T17:53:27;8.10;52.10
27200;DHT22;14714;48.106;11.546;2023-04-06T17:56:05;8.00;52.30
27200;DHT22;14714;48.106;11.546;2023-04-06T17:58:31;7.90;52.30
27200;DHT22;14714;48.106;11.546;2023-04-06T18:00:58;7.80;52.50
27200;DHT22;14714;48.106;11.546;2023-04-06T18:03:25;7.70;52.90
27200;DHT22;14714;48.106;11.546;2023-04-06T18:05:53;7.60;53.30
27200;DHT22;14714;48.106;11.546;2023-04-06T18:08:20;7.50;53.60
27200;DHT22;14714;48.106;11.546;2023-04-06T18:10:47;7.40;54.30
27200;DHT22;14714;48.106;11.546;2023-04-06T18:13:14;7.30;54.60
27200;DHT22;14714;48.106;11.546;2023-04-06T18:15:41;7.20;55.10
27200;DHT22;14714;48.106;11.546;2023-04-06T18:18:08;7.10;56.00
27200;DHT22;14714;48.106;11.546;2023-04-06T18:20:39;7.00;56.60
27200;DHT22;14714;48.106;11.546;2023-04-06T18:23:06;6.90;57.20
27200;DHT22;14714;48.106;11.546;2023-04-06T18:25:37;6.80;57.10
27200;DHT22;14714;48.106;11.546;2023-04-06T18:28:05;6.70;57.90
27200;DHT22;14714;48.106;11.546;2023-04-06T18:30:32;6.60;57.30
27200;DHT22;14714;48.106;11.546;2023-04-06T18:32:59;6.60;58.30
27200;DHT22;14714;48.106;11.546;2023-04-06T18:35:26;6.50;58.10
27200;DHT22;14714;48.106;11.546;2023-04-06T18:37:52;6.40;58.50
27200;DHT22;14714;48.106;11.546;2023-04-06T18:40:36;6.30;59.50
27200;DHT22;14714;48.106;11.546;2023-04-06T18:43:04;6.20;60.20
27200;DHT22;14714;48.106;11.546;2023-04-06T18:45:33;6.20;60.40
27200;DHT22;14714;48.106;11.546;2023-04-06T18:48:00;6.10;61.00
27200;DHT22;14714;48.106;11.546;2023-04-06T18:50:27;6.00;61.00
27200;DHT22;14714;48.106;11.546;2023-04-06T18:52:54;6.00;63.60
27200;DHT22;14714;48.106;11.546;2023-04-06T18:55:21;5.90;64.00
27200;DHT22;14714;48.106;11.546;2023-04-06T18:57:48;5.80;64.40
27200;DHT22;14714;48.106;11.546;2023-04-06T19:00:15;5.80;64.90
27200;DHT22;14714;48.106;11.546;2023-04-06T19:02:43;5.70;65.60
27200;DHT22;14714;48.106;11.546;2023-04-06T19:05:11;5.50;65.90
27200;DHT22;14714;48.106;11.546;2023-04-06T19:07:38;5.40;66.40
27200;DHT22;14714;48.106;11.546;2023-04-06T19:10:08;5.40;67.00
27200;DHT22;14714;48.106;11.546;2023-04-06T19:12:35;5.20;67.50
27200;DHT22;14714;48.106;11.546;2023-04-06T19:15:05;5.10;68.20